Time;durP1;ratioP1;P1;durP2;ratioP2;P2;SDS_P1;SDS_P2;PMS_P1;PMS_P2;Temp;Humidity;BMP_temperature;BMP_pressure;BME280_temperature;BME280_humidity;BME280_pressure;Samples;Min_cycle;Max_cycle;Signal;HPM_P1;HPM_P2
2021/06/04 00:00:45;;;;;;;6.90;6.20;;;15.20;99.90;;;;;;5097452;28;20203;-66
2021/06/04 00:03:12;;;;;;;7.23;6.53;;;15.20;99.90;;;;;;5097140;28;20165;-67
2021/06/04 00:05:56;;;;;;;6.57;5.97;;;15.10;99.90;;;;;;5097326;28;20459;-67
2021/06/04 00:08:24;;;;;;;6.60;5.90;;;14.90;99.90;;;;;;5112904;28;20945;-65
2021/06/04 00:10:58;;;;;;;7.93;6.43;;;14.70;99.90;;;;;;5096842;28;20444;-65
2021/06/04 00:13:42;;;;;;;9.23;6.40;;;14.90;99.90;;;;;;5097079;28;20410;-68
2021/06/04 00:16:18;;;;;;;9.27;6.17;;;14.90;99.90;;;;;;5097375;28;20472;-65
2021/06/04 00:18:44;;;;;;;6.80;6.10;;;14.60;99.90;;;;;;5096769;28;20763;-66
2021/06/04 00:21:15;;;;;;;6.93;6.23;;;14.70;99.90;;;;;;5096827;28;20771;-65
2021/06/04 00:23:41;;;;;;;6.93;6.23;;;14.90;99.90;;;;;;5096865;28;20381;-68
2021/06/04 00:26:08;;;;;;;7.80;6.80;;;14.80;99.90;;;;;;5112627;28;20844;-67
2021/06/04 00:28:34;;;;;;;7.60;6.60;;;14.70;99.90;;;;;;5096705;28;20936;-66
2021/06/04 00:31:00;;;;;;;7.57;6.67;;;14.60;99.90;;;;;;5096969;28;20445;-65
2021/06/04 00:33:26;;;;;;;11.23;6.80;;;14.60;99.90;;;;;;5096643;28;20416;-67
2021/06/04 00:35:51;;;;;;;6.90;6.27;;;14.50;99.90;;;;;;5096202;28;20929;-66
2021/06/04 00:38:17;;;;;;;7.70;6.60;;;14.40;99.90;;;;;;5096512;28;20420;-68
2021/06/04 00:40:48;;;;;;;7.93;6.03;;;14.40;99.90;;;;;;5096753;28;20211;-65
2021/06/04 00:43:14;;;;;;;9.50;6.53;;;14.50;99.90;;;;;;5096556;28;20183;-65
2021/06/04 00:45:45;;;;;;;7.80;6.63;;;14.30;99.90;;;;;;5096614;28;20429;-67
2021/06/04 00:48:12;;;;;;;8.17;6.27;;;14.20;99.90;;;;;;5112021;28;20413;-67
2021/06/04 00:50:52;;;;;;;9.33;6.50;;;14.10;99.90;;;;;;5096500;28;20443;-68
2021/06/04 00:53:20;;;;;;;7.80;6.67;;;14.10;99.90;;;;;;5096248;28;20437;-67
2021/06/04 00:55:46;;;;;;;8.00;7.20;;;14.10;99.90;;;;;;5111755;28;20488;-67
2021/06/04 00:58:15;;;;;;;7.30;6.70;;;13.90;99.90;;;;;;5111871;28;20444;-66
2021/06/04 01:00:44;;;;;;;7.70;6.90;;;13.90;99.90;;;;;;5095851;28;20433;-65
2021/06/04 01:03:12;;;;;;;10.73;7.00;;;13.90;99.90;;;;;;5096198;28;20425;-68
2021/06/04 01:05:41;;;;;;;8.50;5.97;;;14.00;99.90;;;;;;5096250;28;20429;-65
2021/06/04 01:08:17;;;;;;;7.30;6.57;;;14.20;99.90;;;;;;5096065;28;20398;-67
2021/06/04 01:11:05;;;;;;;8.07;7.10;;;14.20;99.90;;;;;;5096104;28;20532;-67
2021/06/04 01:13:37;;;;;;;7.33;6.53;;;14.10;99.90;;;;;;5091078;28;20820;-67
2021/06/04 01:16:11;;;;;;;8.90;6.70;;;14.10;99.90;;;;;;5095352;28;20513;-65
2021/06/04 01:19:01;;;;;;;7.80;6.70;;;13.90;99.90;;;;;;5095721;28;20404;-67
2021/06/04 01:21:33;;;;;;;7.70;6.77;;;14.00;99.90;;;;;;5096062;28;20436;-67
2021/06/04 01:24:29;;;;;;;9.00;6.13;;;14.10;99.90;;;;;;5111239;28;20421;-65
2021/06/04 01:27:00;;;;;;;9.57;6.93;;;14.20;99.90;;;;;;5091235;28;20786;-67
2021/06/04 01:29:33;;;;;;;10.10;6.40;;;14.30;99.90;;;;;;5095651;28;20458;-68
2021/06/04 01:32:03;;;;;;;8.37;6.43;;;14.20;99.90;;;;;;5095354;28;20474;-65
2021/06/04 01:34:39;;;;;;;7.20;6.37;;;14.00;99.90;;;;;;5095440;28;20508;-68
2021/06/04 01:37:10;;;;;;;12.43;6.80;;;14.10;99.90;;;;;;5095242;28;20460;-66
2021/06/04 01:39:49;;;;;;;8.00;6.57;;;14.00;99.90;;;;;;5095675;28;20445;-66
2021/06/04 01:42:19;;;;;;;6.93;6.23;;;13.70;99.90;;;;;;5095422;28;20417;-67
2021/06/04 01:45:09;;;;;;;12.93;7.17;;;13.60;99.90;;;;;;5095256;28;20420;-66
2021/06/04 01:47:38;;;;;;;6.40;5.80;;;13.50;99.90;;;;;;5109993;28;20913;-68
2021/06/04 01:50:31;;;;;;;6.67;6.00;;;13.50;99.90;;;;;;5095229;28;20421;-65
2021/06/04 01:53:00;;;;;;;8.57;6.87;;;13.50;99.90;;;;;;5094967;28;20413;-67
2021/06/04 01:55:29;;;;;;;8.03;6.20;;;13.50;99.90;;;;;;5110769;28;20453;-67
2021/06/04 01:58:05;;;;;;;10.63;7.17;;;13.60;99.90;;;;;;5094864;28;20472;-65
2021/06/04 02:00:43;;;;;;;7.80;7.00;;;13.60;99.90;;;;;;5095193;28;20432;-66
2021/06/04 02:03:12;;;;;;;10.33;7.30;;;13.80;99.90;;;;;;5095030;28;20479;-67
2021/06/04 02:05:40;;;;;;;7.67;6.97;;;13.60;99.90;;;;;;5095169;28;20436;-67
2021/06/04 02:08:10;;;;;;;9.67;6.73;;;13.40;99.90;;;;;;5094681;28;20488;-65
2021/06/04 02:10:40;;;;;;;8.43;6.40;;;13.50;99.90;;;;;;5095045;28;20448;-66
2021/06/04 02:13:08;;;;;;;9.63;7.37;;;13.40;99.90;;;;;;5094720;28;20456;-65
2021/06/04 02:15:37;;;;;;;8.87;6.33;;;13.20;99.90;;;;;;5094854;28;20971;-67
2021/06/04 02:18:17;;;;;;;6.90;6.15;;;13.10;99.90;;;;;;5094578;28;20420;-67
2021/06/04 02:21:08;;;;;;;7.67;6.80;;;13.50;99.90;;;;;;5094491;28;20230;-67
2021/06/04 02:23:51;;;;;;;11.40;7.73;;;13.40;99.90;;;;;;5094559;28;20402;-65
2021/06/04 02:26:47;;;;;;;9.30;6.93;;;13.60;99.90;;;;;;5094992;28;20433;-67
2021/06/04 02:29:15;;;;;;;8.70;6.33;;;13.40;99.90;;;;;;5091782;28;20449;-67
2021/06/04 02:31:47;;;;;;;11.20;8.13;;;13.30;99.90;;;;;;5094316;28;20425;-67
2021/06/04 02:34:31;;;;;;;9.40;7.65;;;13.40;99.90;;;;;;5094299;28;20164;-67
2021/06/04 02:37:03;;;;;;;7.80;7.00;;;13.40;99.90;;;;;;5094179;28;20279;-66
2021/06/04 02:39:36;;;;;;;9.50;7.23;;;13.30;99.90;;;;;;5094343;28;20412;-65
2021/06/04 02:42:18;;;;;;;8.97;7.57;;;13.50;99.90;;;;;;5094224;28;20424;-66
2021/06/04 02:44:53;;;;;;;13.03;8.53;;;13.40;99.90;;;;;;5094259;28;20965;-65
2021/06/04 02:47:31;;;;;;;10.83;6.93;;;13.40;99.90;;;;;;5094122;28;20411;-67
2021/06/04 02:50:00;;;;;;;9.23;7.90;;;13.40;99.90;;;;;;5109889;28;20445;-67
2021/06/04 02:52:37;;;;;;;11.55;7.85;;;13.40;99.90;;;;;;5109610;28;20412;-65
2021/06/04 02:55:10;;;;;;;8.10;7.10;;;13.20;99.90;;;;;;5094236;28;20192;-68
2021/06/04 02:57:37;;;;;;;8.30;7.27;;;13.10;99.90;;;;;;5093752;28;20542;-68
2021/06/04 03:00:18;;;;;;;11.53;7.70;;;13.00;99.90;;;;;;5109453;28;20463;-65
2021/06/04 03:02:44;;;;;;;9.57;7.20;;;13.20;99.90;;;;;;5109648;28;20424;-65
2021/06/04 03:05:16;;;;;;;10.17;7.30;;;13.10;99.90;;;;;;5094115;28;20504;-67
2021/06/04 03:07:43;;;;;;;10.00;7.70;;;13.20;99.90;;;;;;5109545;28;20409;-65
2021/06/04 03:10:28;;;;;;;9.57;8.63;;;13.10;99.90;;;;;;5094173;28;20759;-66
2021/06/04 03:12:54;;;;;;;11.40;8.63;;;13.00;99.90;;;;;;5093802;28;20278;-65
2021/06/04 03:15:33;;;;;;;9.57;7.60;;;13.00;99.90;;;;;;5094027;28;20429;-68
2021/06/04 03:17:59;;;;;;;12.53;8.73;;;13.20;99.90;;;;;;5093714;28;20448;-67
2021/06/04 03:20:34;;;;;;;10.93;8.20;;;13.00;99.90;;;;;;5093935;28;20440;-65
2021/06/04 03:23:00;;;;;;;15.20;8.73;;;13.00;99.90;;;;;;5093603;28;20408;-66
2021/06/04 03:25:34;;;;;;;10.47;7.90;;;13.00;99.90;;;;;;5093581;28;20941;-67
2021/06/04 03:28:00;;;;;;;9.50;8.20;;;13.20;99.90;;;;;;5109271;28;20180;-65
2021/06/04 03:30:31;;;;;;;7.83;6.97;;;13.40;99.90;;;;;;5093846;28;20445;-67
2021/06/04 03:32:56;;;;;;;9.63;7.90;;;13.50;99.90;;;;;;5093650;28;20634;-68
2021/06/04 03:35:24;;;;;;;8.73;7.30;;;13.20;99.90;;;;;;5109211;28;20456;-65
2021/06/04 03:37:50;;;;;;;9.33;7.73;;;13.30;99.90;;;;;;5109211;28;20249;-67
2021/06/04 03:40:21;;;;;;;12.63;7.50;;;13.40;99.90;;;;;;5093782;28;20433;-66
2021/06/04 03:42:47;;;;;;;11.90;7.50;;;13.30;99.90;;;;;;5109165;28;20798;-67
2021/06/04 03:45:18;;;;;;;9.03;7.10;;;13.60;99.90;;;;;;5109191;28;20449;-65
2021/06/04 03:47:44;;;;;;;11.40;7.73;;;13.60;99.90;;;;;;5109115;28;20749;-67
2021/06/04 03:50:10;;;;;;;10.47;7.97;;;13.70;99.90;;;;;;5109145;28;20511;-67
2021/06/04 03:52:37;;;;;;;10.40;7.80;;;13.70;99.90;;;;;;5093320;28;20200;-66
2021/06/04 03:55:04;;;;;;;9.50;7.40;;;13.70;99.90;;;;;;5109074;28;20524;-65
2021/06/04 03:57:32;;;;;;;9.03;7.30;;;13.90;99.90;;;;;;5109024;28;20461;-67
2021/06/04 03:59:59;;;;;;;9.60;6.97;;;14.00;99.90;;;;;;5093433;28;20420;-65
2021/06/04 04:02:27;;;;;;;8.23;7.07;;;14.10;99.90;;;;;;5093213;28;20388;-67
2021/06/04 04:04:57;;;;;;;10.80;7.63;;;14.30;99.90;;;;;;5108947;28;20429;-68
2021/06/04 04:07:25;;;;;;;8.93;6.63;;;14.30;99.90;;;;;;5093287;28;20400;-68
2021/06/04 04:09:50;;;;;;;7.80;6.97;;;14.30;99.90;;;;;;5094472;28;20416;-65
2021/06/04 04:12:17;;;;;;;8.60;7.60;;;14.30;99.90;;;;;;5096856;28;20971;-67
2021/06/04 04:14:43;;;;;;;8.87;6.90;;;14.30;99.90;;;;;;5080623;28;20177;-65
2021/06/04 04:17:09;;;;;;;9.67;7.37;;;14.20;99.90;;;;;;5094219;28;20472;-65
2021/06/04 04:19:35;;;;;;;11.27;7.83;;;14.30;99.90;;;;;;5096998;28;20423;-65
2021/06/04 04:22:00;;;;;;;9.33;7.63;;;14.30;99.90;;;;;;5096768;28;20249;-65
2021/06/04 04:24:29;;;;;;;9.17;7.40;;;14.30;99.90;;;;;;5084023;28;20176;-65
2021/06/04 04:26:57;;;;;;;9.13;7.03;;;14.40;99.90;;;;;;5084148;28;20217;-67
2021/06/04 04:29:23;;;;;;;12.23;6.73;;;14.50;99.90;;;;;;5076409;28;20472;-67
2021/06/04 04:31:53;;;;;;;8.80;7.00;;;14.60;99.90;;;;;;5074973;28;20437;-65
2021/06/04 04:34:19;;;;;;;9.40;7.10;;;14.60;99.90;;;;;;5076280;28;20417;-67
2021/06/04 04:36:49;;;;;;;8.27;6.23;;;14.60;99.90;;;;;;5076135;28;21073;-65
2021/06/04 04:39:19;;;;;;;8.43;7.33;;;14.80;99.90;;;;;;5076202;28;20484;-66
2021/06/04 04:41:46;;;;;;;7.70;6.50;;;15.00;99.90;;;;;;5092295;28;20957;-65
2021/06/04 04:44:13;;;;;;;8.50;7.60;;;15.10;99.90;;;;;;5082969;28;20456;-67
2021/06/04 04:46:39;;;;;;;9.23;7.10;;;15.20;99.90;;;;;;5084507;28;20961;-65
2021/06/04 04:49:05;;;;;;;11.93;7.70;;;15.30;99.90;;;;;;5095134;28;20442;-68
2021/06/04 04:51:32;;;;;;;17.77;15.80;;;15.30;99.90;;;;;;5081965;28;20204;-65
2021/06/04 04:53:58;;;;;;;12.00;10.23;;;15.40;99.90;;;;;;5084430;28;20180;-66
2021/06/04 04:56:24;;;;;;;12.03;10.83;;;15.50;99.90;;;;;;5076242;28;20481;-67
2021/06/04 04:58:51;;;;;;;8.97;7.10;;;15.60;99.90;;;;;;5074572;28;20410;-67
2021/06/04 05:01:18;;;;;;;10.17;7.80;;;15.70;99.90;;;;;;5080934;28;20452;-67
2021/06/04 05:03:44;;;;;;;7.80;6.87;;;15.90;99.90;;;;;;5095653;28;20433;-67
2021/06/04 05:06:10;;;;;;;7.63;6.83;;;16.10;99.90;;;;;;5095924;28;20441;-67
2021/06/04 05:08:36;;;;;;;9.17;6.83;;;16.10;99.90;;;;;;5094637;28;20405;-66
2021/06/04 05:11:04;;;;;;;9.97;7.73;;;16.30;99.90;;;;;;5080485;28;20484;-69
2021/06/04 05:13:29;;;;;;;9.00;6.67;;;16.40;99.90;;;;;;5075421;28;20493;-68
2021/06/04 05:15:55;;;;;;;8.67;7.87;;;16.40;99.90;;;;;;5075710;28;20853;-68
2021/06/04 05:18:21;;;;;;;8.73;6.80;;;16.70;99.90;;;;;;5075555;28;20181;-67
2021/06/04 05:20:48;;;;;;;9.53;7.77;;;16.80;99.90;;;;;;5078640;28;20201;-68
2021/06/04 05:23:16;;;;;;;9.63;7.00;;;16.80;99.90;;;;;;5093631;28;20500;-70
2021/06/04 05:25:45;;;;;;;8.03;7.23;;;17.00;99.90;;;;;;5095865;28;20787;-68
2021/06/04 05:28:13;;;;;;;7.87;6.80;;;17.10;99.90;;;;;;5094912;28;20440;-64
2021/06/04 05:30:42;;;;;;;7.93;6.60;;;17.20;99.90;;;;;;5092325;28;20441;-63
2021/06/04 05:33:11;;;;;;;9.93;6.90;;;17.30;99.90;;;;;;5086758;28;20926;-64
2021/06/04 05:35:37;;;;;;;16.03;7.63;;;17.30;99.90;;;;;;5074069;28;20456;-68
2021/06/04 05:38:03;;;;;;;7.07;6.40;;;17.50;99.90;;;;;;5075007;28;20553;-66
2021/06/04 05:40:33;;;;;;;10.73;7.93;;;17.60;99.90;;;;;;5087549;28;20471;-65
2021/06/04 05:43:00;;;;;;;8.23;7.40;;;17.80;99.90;;;;;;5093924;28;20390;-66
2021/06/04 05:45:31;;;;;;;9.90;8.90;;;17.90;99.90;;;;;;5095366;28;20441;-69
2021/06/04 05:47:56;;;;;;;7.90;7.20;;;18.00;99.90;;;;;;5092987;28;20776;-67
2021/06/04 05:50:26;;;;;;;9.53;7.23;;;18.20;99.90;;;;;;5094871;28;20464;-66
2021/06/04 05:52:52;;;;;;;6.47;5.87;;;18.30;99.90;;;;;;5093301;28;20420;-69
2021/06/04 05:55:24;;;;;;;7.20;6.20;;;18.40;99.90;;;;;;5090687;28;20452;-65
2021/06/04 05:57:50;;;;;;;6.87;6.27;;;18.60;99.90;;;;;;5074385;28;20279;-66
2021/06/04 06:00:30;;;;;;;8.00;6.83;;;18.60;99.90;;;;;;5092619;28;20444;-66
2021/06/04 06:02:57;;;;;;;5.70;5.20;;;18.70;99.90;;;;;;5091266;28;20496;-68
2021/06/04 06:05:23;;;;;;;7.50;5.17;;;18.90;99.90;;;;;;5094637;28;20433;-68
2021/06/04 06:07:49;;;;;;;10.17;5.10;;;19.10;99.90;;;;;;5085531;28;20815;-68
2021/06/04 06:10:15;;;;;;;6.07;5.47;;;19.60;99.90;;;;;;5073923;28;20224;-68
2021/06/04 06:12:41;;;;;;;6.50;5.90;;;20.10;99.90;;;;;;5073821;28;20319;-66
2021/06/04 06:15:08;;;;;;;8.30;5.60;;;20.40;99.90;;;;;;5092832;28;20516;-67
2021/06/04 06:17:35;;;;;;;9.40;6.30;;;20.40;99.90;;;;;;5094128;28;20300;-65
2021/06/04 06:20:01;;;;;;;6.83;6.20;;;20.50;99.90;;;;;;5094512;28;21001;-68
2021/06/04 06:22:26;;;;;;;7.73;5.60;;;20.60;99.90;;;;;;5084955;28;20525;-66
2021/06/04 06:24:52;;;;;;;6.40;4.97;;;20.50;99.90;;;;;;5083036;28;20180;-66
2021/06/04 06:27:18;;;;;;;7.63;5.20;;;20.70;99.90;;;;;;5083204;28;20173;-67
2021/06/04 06:29:45;;;;;;;8.50;4.80;;;21.00;99.90;;;;;;5069879;28;20178;-69
2021/06/04 06:32:12;;;;;;;5.80;5.07;;;20.90;99.90;;;;;;5069708;28;20540;-69
2021/06/04 06:34:38;;;;;;;5.07;4.57;;;21.00;99.90;;;;;;5071749;28;20425;-66
2021/06/04 06:37:04;;;;;;;5.10;4.60;;;21.30;99.90;;;;;;5071721;28;20477;-66
2021/06/04 06:39:32;;;;;;;5.43;4.70;;;21.50;99.90;;;;;;5071649;28;20178;-68
2021/06/04 06:41:59;;;;;;;4.80;4.30;;;21.70;99.90;;;;;;5088085;28;20992;-66
2021/06/04 06:44:25;;;;;;;4.73;4.30;;;21.60;99.90;;;;;;5090321;28;20441;-68
2021/06/04 06:46:52;;;;;;;4.70;4.30;;;21.70;99.90;;;;;;5090531;28;20518;-70
2021/06/04 06:49:21;;;;;;;4.73;4.17;;;21.80;99.90;;;;;;5089507;28;20507;-68
2021/06/04 06:51:48;;;;;;;8.43;4.03;;;21.90;99.90;;;;;;5086606;28;20505;-68
2021/06/04 06:54:19;;;;;;;6.50;4.17;;;22.00;99.90;;;;;;5089723;28;20792;-68
2021/06/04 06:56:46;;;;;;;5.33;3.80;;;22.00;99.90;;;;;;5087037;28;20484;-67
2021/06/04 06:59:12;;;;;;;4.63;4.27;;;22.20;99.90;;;;;;5084702;28;20424;-68
2021/06/04 07:01:39;;;;;;;5.83;4.00;;;22.50;99.90;;;;;;5084493;28;20989;-70
2021/06/04 07:04:05;;;;;;;4.03;3.73;;;22.50;99.90;;;;;;5076703;28;20433;-69
2021/06/04 07:06:34;;;;;;;4.13;3.83;;;22.10;99.90;;;;;;5082013;28;20474;-67
2021/06/04 07:09:01;;;;;;;4.70;4.20;;;22.40;99.90;;;;;;5090539;28;20556;-67
2021/06/04 07:11:34;;;;;;;7.63;5.20;;;22.60;99.90;;;;;;5091996;28;20488;-68
2021/06/04 07:14:00;;;;;;;5.50;4.30;;;22.80;99.90;;;;;;5092855;28;20431;-68
2021/06/04 07:16:25;;;;;;;5.90;5.10;;;22.90;99.90;;;;;;5088783;28;20484;-66
2021/06/04 07:18:52;;;;;;;4.17;3.87;;;23.00;99.90;;;;;;5091281;28;20704;-68
2021/06/04 07:21:21;;;;;;;5.03;4.60;;;22.80;99.90;;;;;;5089562;28;20210;-67
2021/06/04 07:23:47;;;;;;;3.93;3.63;;;22.90;99.90;;;;;;5090529;28;20451;-68
2021/06/04 07:26:13;;;;;;;5.30;4.17;;;23.10;99.90;;;;;;5089725;28;20470;-69
2021/06/04 07:28:39;;;;;;;6.00;3.73;;;23.10;99.90;;;;;;5092797;28;20530;-67
2021/06/04 07:31:09;;;;;;;5.53;4.20;;;23.20;99.90;;;;;;5091730;28;20801;-68
2021/06/04 07:33:38;;;;;;;4.10;3.47;;;23.20;99.90;;;;;;5078576;28;20425;-68
2021/06/04 07:36:08;;;;;;;4.50;4.10;;;23.00;99.90;;;;;;5088009;28;20463;-67
2021/06/04 07:38:35;;;;;;;4.20;3.87;;;23.30;99.90;;;;;;5086090;28;20421;-68
2021/06/04 07:41:01;;;;;;;6.23;4.10;;;23.40;99.90;;;;;;5091502;28;20453;-68
2021/06/04 07:43:30;;;;;;;4.50;3.80;;;23.70;99.90;;;;;;5088398;28;20417;-67
2021/06/04 07:45:56;;;;;;;3.70;3.40;;;23.70;99.90;;;;;;5096803;28;20432;-68
2021/06/04 07:48:22;;;;;;;7.90;3.57;;;23.80;99.90;;;;;;5095292;28;20424;-69
2021/06/04 07:50:53;;;;;;;3.83;3.53;;;23.70;99.90;;;;;;5097112;28;20460;-68
2021/06/04 07:53:23;;;;;;;4.50;3.10;;;23.90;99.90;;;;;;5096379;28;20187;-67
2021/06/04 07:55:48;;;;;;;4.53;3.50;;;24.00;99.90;;;;;;5094917;28;22231;-67
2021/06/04 07:58:15;;;;;;;3.53;3.23;;;24.10;99.90;;;;;;5089011;28;20469;-68
2021/06/04 08:00:41;;;;;;;9.00;4.20;;;24.20;99.70;;;;;;5095349;28;20295;-66
2021/06/04 08:03:09;;;;;;;3.53;3.10;;;24.30;99.90;;;;;;5095381;28;20465;-68
2021/06/04 08:05:36;;;;;;;5.10;3.57;;;24.40;99.90;;;;;;5093454;28;20488;-67
2021/06/04 08:08:08;;;;;;;4.00;3.70;;;24.40;99.90;;;;;;5094422;28;20431;-68
2021/06/04 08:10:35;;;;;;;4.80;3.53;;;24.20;99.60;;;;;;5095558;28;20460;-67
2021/06/04 08:13:02;;;;;;;7.37;3.90;;;24.50;99.40;;;;;;5094845;28;20475;-67
2021/06/04 08:15:37;;;;;;;4.10;3.10;;;24.60;99.20;;;;;;5094359;28;20548;-68
2021/06/04 08:18:04;;;;;;;3.33;2.87;;;24.70;98.40;;;;;;5089408;28;20832;-69
2021/06/04 08:20:33;;;;;;;3.77;3.40;;;24.50;97.70;;;;;;5088442;28;20519;-67
2021/06/04 08:23:03;;;;;;;3.40;3.10;;;24.60;98.00;;;;;;5088826;28;20953;-67
2021/06/04 08:25:34;;;;;;;5.50;3.80;;;24.70;98.30;;;;;;5087315;28;20502;-68
2021/06/04 08:27:59;;;;;;;3.27;2.97;;;24.90;98.00;;;;;;5091993;28;20401;-68
2021/06/04 08:30:26;;;;;;;4.03;3.57;;;24.90;97.60;;;;;;5088898;28;20455;-67
2021/06/04 08:32:52;;;;;;;4.20;3.43;;;25.10;96.40;;;;;;5092397;28;20165;-69
2021/06/04 08:35:18;;;;;;;3.67;3.37;;;25.30;97.30;;;;;;5090702;28;20459;-69
2021/06/04 08:37:44;;;;;;;4.03;2.93;;;25.30;96.90;;;;;;5093796;28;20514;-69
2021/06/04 08:40:18;;;;;;;5.23;3.30;;;25.30;96.50;;;;;;5092364;28;20850;-67
2021/06/04 08:42:47;;;;;;;3.40;3.10;;;25.30;94.20;;;;;;5094461;28;20410;-69
2021/06/04 08:45:15;;;;;;;4.30;3.20;;;25.10;92.70;;;;;;5093864;28;20451;-68
2021/06/04 08:47:45;;;;;;;4.53;3.30;;;25.00;94.10;;;;;;5093756;28;20430;-67
2021/06/04 08:50:38;;;;;;;3.33;3.10;;;25.00;94.90;;;;;;5093255;28;20476;-68
2021/06/04 08:53:31;;;;;;;3.10;2.90;;;25.30;94.70;;;;;;5095430;28;20401;-67
2021/06/04 08:55:59;;;;;;;3.70;3.40;;;25.00;92.10;;;;;;5090752;28;20493;-67
2021/06/04 08:58:36;;;;;;;3.47;3.10;;;24.50;91.10;;;;;;5092936;28;20432;-68
2021/06/04 09:01:11;;;;;;;4.97;3.50;;;24.70;93.20;;;;;;5090485;28;20999;-67
2021/06/04 09:03:47;;;;;;;4.87;2.87;;;25.40;93.80;;;;;;5094747;28;20428;-68
2021/06/04 09:06:37;;;;;;;4.40;3.73;;;25.70;93.80;;;;;;5094654;28;20545;-68
2021/06/04 09:09:23;;;;;;;4.13;3.47;;;25.90;93.00;;;;;;5093294;28;20399;-66
2021/06/04 09:11:58;;;;;;;4.60;3.67;;;25.60;86.50;;;;;;5093505;28;20482;-68
2021/06/04 09:14:24;;;;;;;4.23;3.13;;;25.30;89.80;;;;;;5122680;27;20938;-68
2021/06/04 09:16:53;;;;;;;3.10;2.80;;;25.80;92.20;;;;;;5093117;28;20495;-67
2021/06/04 09:20:05;;;;;;;4.03;3.37;;;25.80;90.00;;;;;;5093133;28;20503;-67
2021/06/04 09:22:42;;;;;;;5.90;4.13;;;25.50;88.90;;;;;;5090929;28;20533;-68
2021/06/04 09:25:15;;;;;;;4.30;3.90;;;25.40;87.20;;;;;;5091329;28;20435;-67
2021/06/04 09:27:50;;;;;;;3.37;3.03;;;25.80;90.60;;;;;;5087808;28;20918;-67
2021/06/04 09:30:32;;;;;;;3.47;3.27;;;26.00;91.10;;;;;;5090707;28;20814;-67
2021/06/04 09:33:11;;;;;;;3.50;3.20;;;26.40;88.90;;;;;;5085547;28;20942;-69
2021/06/04 09:35:53;;;;;;;4.20;3.80;;;25.90;86.30;;;;;;5091688;28;20463;-67
2021/06/04 09:38:25;;;;;;;3.60;3.33;;;25.20;86.60;;;;;;5081826;28;20870;-67
2021/06/04 09:40:52;;;;;;;3.77;3.37;;;25.60;89.40;;;;;;5092613;28;20533;-68
2021/06/04 09:43:22;;;;;;;4.43;3.53;;;26.10;89.80;;;;;;5093050;28;20408;-67
2021/06/04 09:45:55;;;;;;;3.60;3.30;;;26.40;87.00;;;;;;5094655;28;20471;-68
2021/06/04 09:48:47;;;;;;;3.23;2.93;;;26.20;89.10;;;;;;5092307;28;20423;-69
2021/06/04 09:51:21;;;;;;;4.90;3.73;;;26.60;88.20;;;;;;5091281;28;20814;-67
2021/06/04 09:53:47;;;;;;;4.40;3.43;;;26.70;87.60;;;;;;5083265;28;20429;-68
2021/06/04 09:56:33;;;;;;;3.70;3.07;;;26.70;85.60;;;;;;5090569;28;20932;-67
2021/06/04 09:59:05;;;;;;;4.27;3.70;;;26.80;89.90;;;;;;5091910;28;20325;-67
2021/06/04 10:01:42;;;;;;;6.30;4.03;;;26.50;84.60;;;;;;5087184;28;20446;-69
2021/06/04 10:04:15;;;;;;;3.50;3.20;;;26.90;88.20;;;;;;5088587;28;20434;-67
2021/06/04 10:06:49;;;;;;;3.40;3.10;;;27.00;88.70;;;;;;5087168;28;20530;-67
2021/06/04 10:09:24;;;;;;;3.97;3.57;;;27.00;86.40;;;;;;5085554;28;20511;-67
2021/06/04 10:11:58;;;;;;;4.00;3.60;;;27.00;88.60;;;;;;5088473;28;20825;-68
2021/06/04 10:18:37;;;;;;;5.73;4.63;;;25.70;82.30;;;;;;5146412;27;20554;-67
2021/06/04 10:21:13;;;;;;;3.37;3.17;;;25.50;82.70;;;;;;5136541;27;20469;-68
2021/06/04 10:23:53;;;;;;;3.93;2.93;;;25.90;84.80;;;;;;5140844;27;20478;-68
2021/06/04 10:26:27;;;;;;;4.07;3.77;;;26.40;86.90;;;;;;5136087;27;21179;-68
2021/06/04 10:28:55;;;;;;;3.73;3.43;;;26.70;85.10;;;;;;5130417;27;20442;-69
2021/06/04 10:31:36;;;;;;;4.47;3.47;;;26.90;84.80;;;;;;5125641;28;20468;-67
2021/06/04 10:34:29;;;;;;;5.93;3.60;;;26.60;83.80;;;;;;5129598;28;20406;-68
2021/06/04 10:36:57;;;;;;;4.83;4.00;;;26.90;84.60;;;;;;5109340;28;20987;-67
2021/06/04 10:40:08;;;;;;;6.10;3.73;;;26.80;83.30;;;;;;5110035;28;20411;-68
2021/06/04 10:43:01;;;;;;;4.73;4.30;;;26.90;84.60;;;;;;5089973;28;20932;-67
2021/06/04 10:46:16;;;;;;;5.17;3.70;;;26.70;82.90;;;;;;5107884;28;20937;-68
2021/06/04 10:49:27;;;;;;;4.30;4.00;;;26.80;84.60;;;;;;5106585;28;20435;-67
2021/06/04 10:52:16;;;;;;;4.27;3.90;;;26.60;82.40;;;;;;5120498;28;20511;-67
2021/06/04 10:54:54;;;;;;;3.83;3.50;;;26.60;80.60;;;;;;5123158;27;20759;-67
2021/06/04 10:57:51;;;;;;;6.00;3.63;;;27.00;81.90;;;;;;5116764;28;20506;-67
2021/06/04 11:00:24;;;;;;;3.80;3.50;;;27.20;80.20;;;;;;5119582;28;20447;-68
2021/06/04 11:03:11;;;;;;;5.00;3.97;;;26.70;80.70;;;;;;5124401;28;20928;-68
2021/06/04 11:05:47;;;;;;;4.10;3.80;;;26.80;81.90;;;;;;5121807;28;20578;-68
2021/06/04 11:08:38;;;;;;;4.70;3.53;;;26.70;81.70;;;;;;5125171;28;20997;-68
2021/06/04 11:11:13;;;;;;;3.90;3.60;;;26.20;80.90;;;;;;5127016;28;20605;-68
2021/06/04 11:14:01;;;;;;;6.77;3.60;;;26.10;80.10;;;;;;5127659;28;20427;-68
2021/06/04 11:16:32;;;;;;;4.23;3.87;;;26.60;79.50;;;;;;5119937;28;20489;-67
2021/06/04 11:19:11;;;;;;;5.23;3.60;;;26.80;80.90;;;;;;5118694;28;20423;-67
2021/06/04 11:21:42;;;;;;;4.83;3.30;;;26.60;80.20;;;;;;5127456;28;20545;-68
2021/06/04 11:24:21;;;;;;;3.63;3.40;;;26.60;81.20;;;;;;5126770;28;20454;-69
2021/06/04 11:26:52;;;;;;;4.17;3.87;;;26.70;80.50;;;;;;5113162;28;20978;-67
2021/06/04 11:29:22;;;;;;;8.07;4.40;;;26.70;82.00;;;;;;5117872;28;20950;-67
2021/06/04 11:31:47;;;;;;;4.97;3.80;;;27.10;83.10;;;;;;5110906;28;21004;-67
2021/06/04 11:34:31;;;;;;;11.47;3.90;;;27.40;83.40;;;;;;5113225;28;20553;-67
2021/06/04 11:36:59;;;;;;;4.17;3.80;;;27.40;82.80;;;;;;5109742;27;20690;-68
2021/06/04 11:39:46;;;;;;;7.03;4.30;;;27.40;83.10;;;;;;5137220;27;20404;-67
2021/06/04 11:42:17;;;;;;;4.30;3.80;;;27.40;80.80;;;;;;5127588;27;20794;-67
2021/06/04 11:44:53;;;;;;;24.37;5.23;;;27.30;82.30;;;;;;5122140;27;20685;-66
2021/06/04 11:47:19;;;;;;;9.60;4.50;;;27.00;79.00;;;;;;5122060;27;20460;-67
2021/06/04 11:49:56;;;;;;;9.33;4.40;;;26.60;84.20;;;;;;5130227;27;20419;-68
2021/06/04 11:52:35;;;;;;;4.10;3.70;;;26.60;80.60;;;;;;5118657;27;20197;-67
2021/06/04 11:55:26;;;;;;;4.77;3.90;;;26.50;78.60;;;;;;5121161;27;20488;-68
2021/06/04 11:57:55;;;;;;;10.00;3.37;;;26.60;82.40;;;;;;5105934;27;20554;-69
2021/06/04 12:00:44;;;;;;;3.63;3.43;;;27.10;82.60;;;;;;5124908;27;20926;-67
2021/06/04 12:03:09;;;;;;;3.97;3.57;;;27.40;78.90;;;;;;5119276;27;20439;-67
2021/06/04 12:05:44;;;;;;;10.57;5.10;;;27.50;81.50;;;;;;5112918;27;20856;-68
2021/06/04 12:08:25;;;;;;;4.13;3.73;;;27.50;82.30;;;;;;5115740;27;20709;-68
2021/06/04 12:10:53;;;;;;;22.13;6.17;;;27.40;82.70;;;;;;5116570;27;20475;-68
2021/06/04 12:13:40;;;;;;;5.97;3.50;;;27.20;82.90;;;;;;5110296;28;20776;-67
2021/06/04 12:16:30;;;;;;;6.63;3.77;;;27.40;78.60;;;;;;5114525;27;20970;-68
2021/06/04 12:19:24;;;;;;;4.20;3.80;;;27.30;78.40;;;;;;5115030;27;20464;-69
2021/06/04 12:21:50;;;;;;;12.60;4.90;;;27.60;81.80;;;;;;5115971;27;20454;-68
2021/06/04 12:24:22;;;;;;;5.30;3.80;;;27.50;79.80;;;;;;5119805;27;20420;-68
2021/06/04 12:27:20;;;;;;;5.50;4.43;;;27.40;82.40;;;;;;5114916;27;20462;-69
2021/06/04 12:29:51;;;;;;;3.37;3.17;;;27.00;78.60;;;;;;5074712;27;20816;-68
2021/06/04 12:32:19;;;;;;;3.87;3.57;;;27.30;77.40;;;;;;5114847;27;20521;-68
2021/06/04 12:34:47;;;;;;;3.83;3.53;;;27.50;81.50;;;;;;5116064;27;20838;-67
2021/06/04 12:37:19;;;;;;;4.10;3.80;;;27.60;81.00;;;;;;5119150;27;20526;-68
2021/06/04 12:40:12;;;;;;;4.93;3.67;;;27.50;81.50;;;;;;5114630;27;20429;-67
2021/06/04 12:43:04;;;;;;;9.43;3.70;;;27.20;75.00;;;;;;5121906;27;20435;-68
2021/06/04 12:45:38;;;;;;;9.33;3.87;;;26.90;79.60;;;;;;5111897;27;20959;-67
2021/06/04 12:48:20;;;;;;;3.77;3.17;;;27.20;78.80;;;;;;5117196;27;20442;-67
2021/06/04 12:51:01;;;;;;;4.10;3.50;;;26.80;77.60;;;;;;5114444;27;20451;-68
2021/06/04 12:53:44;;;;;;;6.37;3.87;;;26.40;75.90;;;;;;5140633;27;21033;-68
2021/06/04 12:56:19;;;;;;;3.67;3.33;;;26.20;75.70;;;;;;5122818;27;20879;-68
2021/06/04 12:59:08;;;;;;;5.60;3.77;;;26.60;78.20;;;;;;5122158;27;20454;-68
2021/06/04 13:01:53;;;;;;;3.20;3.00;;;27.10;78.00;;;;;;5128834;27;20466;-67
2021/06/04 13:04:24;;;;;;;5.40;3.90;;;27.10;77.10;;;;;;5133605;27;20608;-69
2021/06/04 13:06:52;;;;;;;4.00;3.70;;;26.90;76.30;;;;;;5133388;27;20442;-69
2021/06/04 13:09:37;;;;;;;3.80;3.50;;;27.00;77.50;;;;;;5127793;27;20429;-69
2021/06/04 13:12:19;;;;;;;4.70;3.30;;;27.10;79.40;;;;;;5089633;28;20850;-68
2021/06/04 13:14:48;;;;;;;3.60;3.30;;;27.30;76.30;;;;;;5102866;27;20429;-69
2021/06/04 13:17:32;;;;;;;3.80;3.47;;;27.60;79.30;;;;;;5131799;27;20478;-68